Time;durP1;ratioP1;P1;durP2;ratioP2;P2;SDS_P1;SDS_P2;PMS_P1;PMS_P2;Temp;Humidity;BMP_temperature;BMP_pressure;BME280_temperature;BME280_humidity;BME280_pressure;Samples;Min_cycle;Max_cycle;Signal;HPM_P1;HPM_P2
2021/01/18 00:02:28;;;;;;;52.40;19.77;;;;;;;-14.42;61.01;99823.27;1711615;84;21174;-77
2021/01/18 00:04:56;;;;;;;54.73;20.83;;;;;;;-14.41;60.73;99825.78;1706543;82;21149;-77
2021/01/18 00:07:24;;;;;;;;;;;;;;;-14.41;60.70;99817.91;1690599;84;21254;-79
2021/01/18 00:09:57;;;;;;;62.50;20.10;;;;;;;-14.38;60.89;99813.77;1710658;82;20462;-78
2021/01/18 00:12:26;;;;;;;54.77;20.20;;;;;;;-14.37;60.80;99815.92;1695497;84;21149;-77
2021/01/18 00:14:54;;;;;;;50.70;20.12;;;;;;;-14.39;61.04;99816.01;1710431;82;21177;-76
2021/01/18 00:17:22;;;;;;;63.02;21.10;;;;;;;-14.42;61.00;99820.64;1705447;82;21211;-79
2021/01/18 00:19:50;;;;;;;60.25;21.30;;;;;;;-14.47;61.10;99816.98;1706907;82;21140;-73
2021/01/18 00:22:18;;;;;;;56.77;21.05;;;;;;;-14.44;61.19;99817.25;1695610;82;21275;-77
2021/01/18 00:24:46;;;;;;;55.30;21.03;;;;;;;-14.46;61.50;99821.31;1683254;83;21151;-79
2021/01/18 00:27:14;;;;;;;58.60;21.75;;;;;;;-14.43;61.46;99821.58;1711248;83;21244;-78
2021/01/18 00:29:43;;;;;;;49.73;19.73;;;;;;;-14.39;61.42;99823.89;1695896;83;21618;-72
2021/01/18 00:32:10;;;;;;;58.58;20.12;;;;;;;-14.32;61.07;99813.83;1686225;84;21231;-72
2021/01/18 00:34:38;;;;;;;59.98;21.68;;;;;;;-14.28;61.13;99810.85;1699658;83;21190;-77
2021/01/18 00:37:06;;;;;;;50.43;20.15;;;;;;;-14.29;61.07;99808.31;1710979;83;21153;-72
2021/01/18 00:39:34;;;;;;;54.65;20.08;;;;;;;-14.28;60.74;99810.85;1709539;83;21600;-72
2021/01/18 00:42:02;;;;;;;55.12;20.15;;;;;;;-14.32;61.03;99810.70;1713959;83;21517;-76
2021/01/18 00:44:30;;;;;;;57.33;21.47;;;;;;;-14.34;61.31;99817.85;1756480;82;21164;-76
2021/01/18 00:46:58;;;;;;;57.98;21.27;;;;;;;-14.34;61.42;99826.20;1690416;83;21132;-73
2021/01/18 00:52:59;;;;;;;57.27;21.20;;;;;;;-14.26;61.25;99822.09;1815778;77;22111;-75
2021/01/18 00:55:27;;;;;;;54.63;19.77;;;;;;;-14.29;61.32;99824.08;1775936;80;21134;-75
2021/01/18 00:58:03;;;;;;;61.53;22.53;;;;;;;-14.29;61.62;99814.88;1755775;81;21592;-70
2021/01/18 01:00:31;;;;;;;55.38;19.67;;;;;;;-14.25;61.46;99803.23;1721834;83;21580;-72
2021/01/18 01:02:59;;;;;;;52.90;20.37;;;;;;;-14.22;61.48;99802.18;1758340;81;21116;-72
2021/01/18 01:05:28;;;;;;;49.83;20.05;;;;;;;-14.18;61.08;99793.97;1763718;80;21140;-71
2021/01/18 01:07:58;;;;;;;58.57;19.87;;;;;;;-14.10;60.81;99787.73;1759571;80;21089;-70
2021/01/18 01:10:33;;;;;;;50.73;20.00;;;;;;;-14.09;60.64;99793.37;1763146;80;21639;-76
2021/01/18 01:13:05;;;;;;;53.27;18.90;;;;;;;-14.09;60.44;99797.31;1771856;80;21164;-76
2021/01/18 01:15:34;;;;;;;57.53;20.43;;;;;;;-14.06;60.08;99791.00;1759537;81;21151;-77
2021/01/18 01:18:03;;;;;;;59.97;20.67;;;;;;;-14.11;60.40;99799.17;1770096;80;21100;-76
2021/01/18 01:20:30;;;;;;;52.07;18.77;;;;;;;-14.14;60.49;99803.36;1775854;80;21156;-77
2021/01/18 01:22:58;;;;;;;50.60;20.95;;;;;;;-14.26;60.29;99815.99;1759851;81;21157;-78
2021/01/18 01:25:26;;;;;;;54.00;19.80;;;;;;;-14.32;60.65;99817.27;1760480;80;21093;-71
2021/01/18 01:27:54;;;;;;;51.57;19.17;;;;;;;-14.34;61.10;99820.48;1759042;81;21134;-78
2021/01/18 01:30:23;;;;;;;44.88;18.07;;;;;;;-14.40;61.73;99820.06;1760829;80;21239;-77
2021/01/18 01:32:53;;;;;;;53.93;20.30;;;;;;;-14.41;61.47;99810.48;1759649;81;21200;-77
2021/01/18 01:35:26;;;;;;;49.43;20.57;;;;;;;-14.42;61.32;99807.51;1760420;80;21606;-71
2021/01/18 01:37:55;;;;;;;57.57;20.77;;;;;;;-14.48;61.59;99807.91;1779445;80;21231;-70
2021/01/18 01:40:23;;;;;;;56.93;21.23;;;;;;;-14.46;61.62;99808.64;1775265;80;21171;-69
2021/01/18 01:42:51;;;;;;;55.23;19.87;;;;;;;-14.41;62.01;99803.45;1760321;80;21168;-70
2021/01/18 01:45:20;;;;;;;47.90;19.05;;;;;;;-14.36;61.46;99805.30;1759564;80;21582;-73
2021/01/18 01:47:51;;;;;;;59.47;20.50;;;;;;;-14.36;61.77;99800.04;1759888;81;21208;-68
2021/01/18 01:50:25;;;;;;;57.53;20.73;;;;;;;-14.31;61.33;99808.45;1770068;80;21116;-75
2021/01/18 01:53:03;;;;;;;58.07;21.03;;;;;;;-14.34;60.98;99806.49;1789341;80;21089;-76
2021/01/18 01:55:33;;;;;;;52.43;19.77;;;;;;;-14.42;61.19;99800.94;1764726;80;21623;-70
2021/01/18 01:58:03;;;;;;;54.60;20.33;;;;;;;-14.53;61.89;99803.43;1760401;80;21222;-76
2021/01/18 02:00:37;;;;;;;58.43;21.13;;;;;;;-14.54;62.02;99805.67;1760203;80;21155;-75
2021/01/18 02:03:11;;;;;;;54.00;20.83;;;;;;;-14.51;62.06;99802.38;1760033;81;21159;-70
2021/01/18 02:05:39;;;;;;;53.53;20.63;;;;;;;-14.50;62.00;99807.17;1746031;81;21112;-71
2021/01/18 02:08:09;;;;;;;59.80;19.93;;;;;;;-14.47;62.12;99796.47;1760054;81;21168;-78
2021/01/18 02:10:38;;;;;;;58.97;20.73;;;;;;;-14.45;61.64;99807.70;1759444;80;21122;-78
2021/01/18 02:13:52;;;;;;;51.63;19.63;;;;;;;-14.47;61.99;99817.48;1760417;81;21090;-76
2021/01/18 02:16:26;;;;;;;57.30;20.93;;;;;;;-14.46;61.79;99831.82;1750053;80;21248;-72
2021/01/18 02:19:31;;;;;;;50.47;18.33;;;;;;;-14.44;61.94;99829.08;1760000;81;21142;-76
2021/01/18 02:22:16;;;;;;;51.30;19.83;;;;;;;-14.36;62.16;99833.36;1753522;81;21107;-72
2021/01/18 02:25:23;;;;;;;49.47;18.50;;;;;;;-14.32;62.49;99834.35;1691279;83;21456;-75
2021/01/18 02:28:29;;;;;;;52.83;18.70;;;;;;;-14.21;62.39;99827.50;1759320;81;21177;-76
2021/01/18 02:31:05;;;;;;;52.00;19.97;;;;;;;-14.20;62.11;99833.98;1759106;80;21164;-75
2021/01/18 02:34:16;;;;;;;53.60;19.50;;;;;;;-14.19;61.93;99830.42;1760179;80;21083;-70
2021/01/18 02:37:09;;;;;;;49.93;18.87;;;;;;;-14.19;61.93;99825.17;1759231;80;21134;-79
2021/01/18 02:40:07;;;;;;;49.53;18.73;;;;;;;-14.25;61.40;99819.00;1728282;83;21267;-74
2021/01/18 02:42:41;;;;;;;45.38;17.92;;;;;;;-14.29;61.72;99813.56;1727347;82;21142;-76
2021/01/18 02:45:11;;;;;;;46.13;17.70;;;;;;;-14.30;61.81;99807.95;1726084;82;21107;-73
2021/01/18 02:47:38;;;;;;;48.50;18.83;;;;;;;-14.31;62.21;99797.94;1725738;83;21160;-71
2021/01/18 02:50:07;;;;;;;52.10;18.60;;;;;;;-14.32;61.82;99800.19;1719329;83;21256;-71
2021/01/18 02:52:40;;;;;;;53.50;19.73;;;;;;;-14.35;62.11;99796.95;1719067;82;21109;-78
2021/01/18 03:03:25;;;;;;;51.47;18.83;;;;;;;-14.35;62.43;99793.00;1828608;77;22532;-76
2021/01/18 03:06:28;;;;;;;48.25;18.00;;;;;;;-14.43;62.40;99792.67;1757958;78;21112;-73
2021/01/18 03:09:00;;;;;;;54.03;20.20;;;;;;;-14.41;62.83;99789.00;1789370;80;21139;-72
2021/01/18 03:11:39;;;;;;;47.17;18.17;;;;;;;-14.35;62.71;99800.42;1731605;81;21183;-72
2021/01/18 03:14:21;;;;;;;51.13;19.10;;;;;;;-14.31;62.96;99795.78;1697579;83;21150;-72
2021/01/18 03:16:49;;;;;;;53.47;18.60;;;;;;;-14.25;62.59;99783.52;1674606;83;21145;-75
2021/01/18 03:19:19;;;;;;;45.67;19.37;;;;;;;-14.32;62.26;99769.97;1706955;82;21128;-70
2021/01/18 03:21:47;;;;;;;54.20;19.73;;;;;;;-14.33;62.84;99771.40;1695607;83;21714;-70
2021/01/18 03:24:22;;;;;;;52.20;19.57;;;;;;;-14.26;62.88;99793.65;1719892;82;21155;-76
2021/01/18 03:26:50;;;;;;;44.07;17.90;;;;;;;-14.26;62.88;99793.65;1722192;83;21614;-70
2021/01/18 03:29:18;;;;;;;53.60;19.13;;;;;;;-14.19;62.49;99787.05;1659704;83;21147;-70
2021/01/18 03:31:46;;;;;;;55.05;19.30;;;;;;;-14.14;62.50;99788.89;1687745;85;21228;-70
2021/01/18 03:34:14;;;;;;;47.45;19.32;;;;;;;-14.12;62.67;99789.63;1687250;82;21154;-71
2021/01/18 03:36:42;;;;;;;55.60;19.80;;;;;;;-14.07;62.99;99787.98;1660314;85;21166;-71
2021/01/18 03:39:10;;;;;;;44.10;19.32;;;;;;;-14.04;62.94;99788.63;1690390;82;21195;-78
2021/01/18 03:41:37;;;;;;;43.00;18.57;;;;;;;-14.07;62.66;99787.52;1723896;82;21132;-72
2021/01/18 03:44:06;;;;;;;49.03;18.42;;;;;;;-14.08;62.86;99781.03;1706304;82;21109;-76
2021/01/18 03:46:33;;;;;;;46.70;17.67;;;;;;;-14.06;63.10;99786.55;1695746;82;21259;-78
2021/01/18 03:49:01;;;;;;;45.95;18.05;;;;;;;-14.08;63.00;99788.45;1705370;83;21578;-74
2021/01/18 03:51:30;;;;;;;;;;;;;;;-14.06;62.94;99786.55;1705376;83;21167;-81
2021/01/18 03:53:58;;;;;;;49.33;18.00;;;;;;;-14.02;63.06;99782.78;1693568;83;20174;-74
2021/01/18 03:56:26;;;;;;;48.78;18.07;;;;;;;-13.94;62.96;99775.69;1719213;81;21146;-80
2021/01/18 03:58:53;;;;;;;50.90;18.37;;;;;;;-13.88;62.53;99776.08;1725704;83;21263;-77
2021/01/18 04:01:21;;;;;;;52.55;18.85;;;;;;;-13.86;62.67;99774.68;1696875;82;21136;-80
2021/01/18 04:03:49;;;;;;;54.50;18.52;;;;;;;-13.81;62.44;99781.77;1682496;83;21145;-78
2021/01/18 04:06:18;;;;;;;52.40;18.60;;;;;;;-13.81;62.57;99776.02;1690156;82;21117;-80
2021/01/18 04:08:46;;;;;;;;;;;;;;;-13.79;62.86;99780.72;1719275;82;21155;-80
2021/01/18 04:11:13;;;;;;;49.53;19.07;;;;;;;-13.78;63.06;99765.75;1730259;82;20227;-80
2021/01/18 04:13:41;;;;;;;;;;;;;;;-13.74;62.71;99761.52;1684771;83;21576;-78
2021/01/18 04:16:09;;;;;;;;;;;;;;;-13.74;62.77;99770.72;1712354;84;20485;-72
2021/01/18 04:18:37;;;;;;;52.78;19.23;;;;;;;-13.84;62.71;99774.94;1700935;83;20168;-72
2021/01/18 04:21:05;;;;;;;52.73;17.73;;;;;;;-13.91;62.74;99782.86;1701021;84;21596;-75
2021/01/18 04:23:34;;;;;;;50.05;19.57;;;;;;;-13.90;63.08;99787.19;1700582;83;21147;-72
2021/01/18 04:26:02;;;;;;;54.53;19.57;;;;;;;-13.86;63.10;99788.64;1696787;83;21187;-72
2021/01/18 04:28:29;;;;;;;50.65;19.27;;;;;;;-13.85;62.56;99782.45;1690537;83;21145;-76
2021/01/18 04:30:57;;;;;;;48.05;18.27;;;;;;;-13.83;62.95;99793.70;1654967;86;21170;-73
2021/01/18 04:33:26;;;;;;;55.47;20.00;;;;;;;-13.75;62.73;99798.42;1680812;83;21247;-76
2021/01/18 04:35:55;;;;;;;41.98;17.73;;;;;;;-13.69;62.83;99801.48;1657080;85;21598;-77
2021/01/18 04:38:24;;;;;;;44.83;18.70;;;;;;;-13.62;62.29;99802.73;1688296;83;21137;-77
2021/01/18 04:42:59;;;;;;;53.70;22.87;;;;;;;-13.56;62.38;99804.56;1783287;77;28033;-78
2021/01/18 04:45:28;;;;;;;45.03;18.40;;;;;;;-13.51;62.19;99799.34;1784875;80;21113;-79
2021/01/18 04:47:57;;;;;;;48.03;17.83;;;;;;;-13.47;61.80;99790.74;1766382;80;21555;-78
2021/01/18 04:50:26;;;;;;;50.17;19.57;;;;;;;-13.49;61.58;99787.39;1757440;81;21176;-74
2021/01/18 04:53:15;;;;;;;44.10;18.80;;;;;;;-13.54;61.75;99789.03;1743283;81;21203;-79
2021/01/18 04:56:13;;;;;;;45.15;18.20;;;;;;;-13.59;62.02;99794.25;1747220;81;21116;-79
2021/01/18 04:58:41;;;;;;;43.73;17.92;;;;;;;-13.64;62.19;99798.53;1684472;83;21170;-72
2021/01/18 05:01:10;;;;;;;57.20;20.12;;;;;;;-13.64;62.54;99807.27;1657578;84;21133;-76
2021/01/18 05:03:38;;;;;;;49.40;19.03;;;;;;;-13.65;62.51;99812.15;1727243;82;21113;-77
2021/01/18 05:09:09;;;;;;;57.90;20.40;;;;;;;-13.62;63.14;99817.67;1831448;77;25238;-75
2021/01/18 05:11:37;;;;;;;56.37;19.80;;;;;;;-13.63;62.96;99835.70;1808465;78;21112;-72
2021/01/18 05:14:05;;;;;;;51.98;19.95;;;;;;;-13.66;63.05;99837.27;1711866;82;21558;-71
2021/01/18 05:16:35;;;;;;;49.63;19.03;;;;;;;-13.65;63.25;99842.41;1731674;81;21660;-77
2021/01/18 05:19:11;;;;;;;55.53;18.70;;;;;;;-13.65;63.76;99852.93;1739037;81;21155;-69
2021/01/18 05:21:40;;;;;;;50.60;19.77;;;;;;;-13.66;63.82;99855.67;1728190;81;21154;-70
2021/01/18 05:24:09;;;;;;;49.60;19.67;;;;;;;-13.70;64.33;99856.35;1735797;81;21670;-70
2021/01/18 05:26:36;;;;;;;52.63;19.23;;;;;;;-13.67;64.23;99854.83;1775132;80;21121;-71
2021/01/18 05:29:05;;;;;;;54.27;19.33;;;;;;;-13.63;64.40;99848.86;1744667;81;21135;-76
2021/01/18 05:31:37;;;;;;;53.63;20.43;;;;;;;-13.58;64.39;99853.83;1760761;80;21125;-76
2021/01/18 05:34:12;;;;;;;51.53;19.60;;;;;;;-13.56;64.32;99854.56;1760128;80;21172;-72
2021/01/18 05:36:42;;;;;;;59.70;20.50;;;;;;;-13.57;64.33;99848.91;1755435;80;21181;-70
2021/01/18 05:39:26;;;;;;;56.20;20.70;;;;;;;-13.53;64.75;99854.35;1744479;82;21123;-73
2021/01/18 05:41:54;;;;;;;53.17;20.17;;;;;;;-13.46;64.87;99863.49;1725867;81;21136;-70
2021/01/18 05:44:34;;;;;;;52.67;22.27;;;;;;;-13.48;64.80;99866.21;1751639;82;21140;-73
2021/01/18 05:47:10;;;;;;;59.27;20.73;;;;;;;-13.56;64.79;99870.34;1746398;81;21244;-82
2021/01/18 05:49:48;;;;;;;58.93;21.43;;;;;;;-13.61;65.44;99868.04;1775006;80;21178;-74
2021/01/18 05:52:30;;;;;;;57.57;21.83;;;;;;;-13.60;65.43;99867.07;1737886;81;21411;-73
2021/01/18 05:55:19;;;;;;;52.23;19.37;;;;;;;-13.62;65.53;99868.97;1738093;81;21197;-79
2021/01/18 05:57:50;;;;;;;65.23;22.53;;;;;;;-13.58;65.55;99873.56;1738263;81;21169;-81
2021/01/18 06:00:29;;;;;;;54.43;21.63;;;;;;;-13.54;65.34;99871.92;1737747;82;21248;-80
2021/01/18 06:02:58;;;;;;;51.87;20.50;;;;;;;-13.47;65.49;99877.59;1743365;81;21163;-73
2021/01/18 06:05:28;;;;;;;55.57;19.63;;;;;;;-13.40;65.14;99872.25;1728032;82;21181;-81
2021/01/18 06:08:18;;;;;;;56.57;20.13;;;;;;;-13.41;64.88;99869.28;1725146;81;21162;-72
2021/01/18 06:18:22;;;;;;;49.40;19.37;;;;;;;-13.23;64.30;99880.65;1829978;77;22120;-73
2021/01/18 06:20:57;;;;;;;52.87;20.10;;;;;;;-13.31;64.70;99884.32;1706968;83;21138;-74
2021/01/18 06:23:25;;;;;;;50.60;19.23;;;;;;;-13.35;64.54;99878.03;1696919;84;21619;-79
2021/01/18 06:25:55;;;;;;;49.90;19.20;;;;;;;-13.34;64.88;99877.10;1715193;80;21140;-74
2021/01/18 06:28:35;;;;;;;53.80;19.27;;;;;;;-13.32;64.64;99877.83;1715524;84;21557;-79
2021/01/18 06:31:08;;;;;;;58.83;19.80;;;;;;;-13.32;64.52;99876.52;1721853;81;21129;-72
2021/01/18 06:33:49;;;;;;;47.80;19.13;;;;;;;-13.37;64.89;99878.63;1720724;83;21215;-73
2021/01/18 06:36:21;;;;;;;50.33;19.37;;;;;;;-13.33;64.93;99882.75;1737127;81;21279;-81
2021/01/18 06:39:03;;;;;;;53.63;20.13;;;;;;;-13.29;64.90;99877.63;1741565;82;21136;-73
2021/01/18 06:41:36;;;;;;;56.37;19.37;;;;;;;-13.26;65.24;99874.31;1715497;83;21168;-72
2021/01/18 06:44:05;;;;;;;48.53;19.20;;;;;;;-13.17;65.19;99874.96;1732038;82;21238;-79
2021/01/18 06:46:35;;;;;;;48.17;19.17;;;;;;;-13.09;64.88;99880.53;1720355;81;21275;-73
2021/01/18 06:49:06;;;;;;;54.93;19.87;;;;;;;-13.02;64.97;99883.05;1727266;83;21112;-78
2021/01/18 06:51:34;;;;;;;55.37;20.23;;;;;;;-12.95;64.49;99882.13;1732291;80;21214;-73
2021/01/18 06:54:03;;;;;;;53.20;19.87;;;;;;;-12.90;64.50;99881.36;1701981;83;21580;-77
2021/01/18 06:57:09;;;;;;;52.07;20.47;;;;;;;-12.80;64.34;99885.01;1714353;82;21282;-72
2021/01/18 06:59:52;;;;;;;53.87;19.97;;;;;;;-12.72;64.48;99882.63;1725884;82;21138;-79
2021/01/18 07:02:29;;;;;;;52.03;18.70;;;;;;;-12.59;63.90;99882.11;1731922;81;21145;-73
2021/01/18 07:05:10;;;;;;;47.73;19.00;;;;;;;-12.58;63.78;99877.69;1704447;83;21651;-72
2021/01/18 07:07:38;;;;;;;52.27;19.90;;;;;;;-12.53;63.77;99876.88;1720856;81;21616;-71
2021/01/18 07:10:10;;;;;;;55.90;18.93;;;;;;;-12.45;63.47;99870.56;1676180;85;21152;-78
2021/01/18 07:12:38;;;;;;;55.20;18.70;;;;;;;-12.52;63.32;99882.02;1721670;81;21240;-72
2021/01/18 07:15:09;;;;;;;49.98;19.80;;;;;;;-12.56;63.67;99876.63;1723845;83;21183;-72
2021/01/18 07:17:52;;;;;;;50.87;19.83;;;;;;;-12.53;63.71;99872.45;1709598;81;21137;-78
2021/01/18 07:20:28;;;;;;;55.30;19.00;;;;;;;-12.44;63.82;99877.03;1722584;83;21616;-78
2021/01/18 07:23:13;;;;;;;54.18;19.40;;;;;;;-12.43;63.70;99874.77;1735783;81;21110;-73
2021/01/18 07:25:47;;;;;;;52.67;19.60;;;;;;;-12.40;63.63;99873.70;1717661;82;21581;-73
2021/01/18 07:28:19;;;;;;;53.27;20.07;;;;;;;-12.37;63.54;99874.80;1726084;80;21134;-73
2021/01/18 07:30:52;;;;;;;56.03;19.33;;;;;;;-12.34;63.53;99867.95;1717480;81;21149;-73
2021/01/18 07:33:18;;;;;;;56.77;19.00;;;;;;;-12.33;63.30;99874.45;1755369;80;21556;-78
2021/01/18 07:35:47;;;;;;;47.57;19.13;;;;;;;-12.36;63.17;99881.27;1715028;84;21175;-74
2021/01/18 07:38:20;;;;;;;52.80;19.87;;;;;;;-12.32;63.94;99885.34;1727851;80;21141;-72
2021/01/18 07:41:12;;;;;;;49.57;18.73;;;;;;;-12.19;63.64;99883.14;1728716;82;21153;-79
2021/01/18 07:43:44;;;;;;;45.70;18.90;;;;;;;-12.06;63.13;99880.77;1714562;80;21169;-72
2021/01/18 07:46:31;;;;;;;48.43;19.10;;;;;;;-11.98;62.94;99878.87;1710683;80;21628;-73
2021/01/18 07:49:17;;;;;;;52.17;18.10;;;;;;;-11.93;63.07;99872.77;1714835;80;21238;-73
2021/01/18 07:51:45;;;;;;;55.30;18.63;;;;;;;-11.88;62.35;99882.02;1714130;81;21106;-73
2021/01/18 07:54:32;;;;;;;52.03;19.15;;;;;;;-11.89;62.44;99885.61;1703687;82;21135;-80
2021/01/18 07:57:31;;;;;;;48.28;19.25;;;;;;;-11.82;62.31;99881.56;1716233;80;21183;-78
2021/01/18 08:00:23;;;;;;;58.00;21.57;;;;;;;-11.74;62.45;99887.58;1739192;80;21133;-80
2021/01/18 08:03:11;;;;;;;51.80;21.50;;;;;;;-11.66;62.71;99893.05;1715013;83;21127;-77
2021/01/18 08:05:41;;;;;;;51.17;19.07;;;;;;;-11.51;62.15;99893.70;1714727;80;21182;-79
2021/01/18 08:08:13;;;;;;;48.63;18.67;;;;;;;-11.52;62.75;99890.69;1714935;80;21144;-74
2021/01/18 08:11:07;;;;;;;50.23;18.43;;;;;;;-11.51;62.13;99891.06;1727549;81;21223;-74
2021/01/18 08:13:51;;;;;;;53.57;18.63;;;;;;;-11.47;62.24;99888.53;1727695;82;21213;-83
2021/01/18 08:16:22;;;;;;;49.70;19.83;;;;;;;-11.44;61.93;99885.66;1715494;81;21400;-84
2021/01/18 08:18:58;;;;;;;46.37;18.30;;;;;;;-11.39;62.65;99886.99;1736999;82;21121;-83
2021/01/18 08:21:42;;;;;;;49.13;18.30;;;;;;;-11.29;61.80;99887.95;1716259;81;21636;-74
2021/01/18 08:24:30;;;;;;;51.37;19.17;;;;;;;-11.30;61.69;99884.94;1719250;83;21250;-78
2021/01/18 08:27:05;;;;;;;44.47;17.77;;;;;;;-11.29;62.39;99884.47;1716602;80;21180;-73
2021/01/18 08:29:48;;;;;;;48.50;19.30;;;;;;;-11.14;61.49;99891.19;1728217;81;21097;-73
2021/01/18 08:32:34;;;;;;;55.23;18.97;;;;;;;-11.26;61.45;99895.64;1720894;80;21126;-76
2021/01/18 08:35:08;;;;;;;44.50;18.80;;;;;;;-11.22;61.14;99893.11;1714975;82;21168;-72
2021/01/18 08:37:37;;;;;;;50.80;19.90;;;;;;;-11.21;61.35;99886.03;1714646;80;21654;-77
2021/01/18 08:40:13;;;;;;;47.47;18.77;;;;;;;-11.04;60.74;99894.31;1725704;80;21144;-72
2021/01/18 08:42:42;;;;;;;49.10;18.87;;;;;;;-10.92;60.81;99892.96;1719817;80;21121;-79
2021/01/18 08:45:44;;;;;;;51.83;19.70;;;;;;;-10.87;60.71;99886.35;1739766;81;21541;-78
2021/01/18 08:48:14;;;;;;;53.37;20.27;;;;;;;-10.82;60.29;99889.47;1721169;81;21164;-78
2021/01/18 08:50:52;;;;;;;52.17;20.33;;;;;;;-10.87;60.46;99888.15;1719775;81;21162;-75
2021/01/18 08:53:35;;;;;;;47.20;18.63;;;;;;;-11.04;60.28;99887.70;1714629;81;21276;-72
2021/01/18 08:56:30;;;;;;;52.43;19.03;;;;;;;-11.07;60.80;99880.02;1715567;82;21134;-73
2021/01/18 08:58:58;;;;;;;46.37;18.20;;;;;;;-11.02;61.00;99876.53;1722182;81;21123;-75
2021/01/18 09:01:27;;;;;;;;;;;;;;;-10.90;61.04;99879.17;1726097;81;21732;-72
2021/01/18 09:04:06;;;;;;;52.13;18.70;;;;;;;-11.02;60.54;99873.04;1724248;81;20182;-78
2021/01/18 09:06:34;;;;;;;49.73;18.47;;;;;;;-10.95;61.43;99877.38;1727332;82;21145;-78
2021/01/18 09:09:09;;;;;;;59.70;20.80;;;;;;;-10.80;62.14;99859.78;1723907;81;21131;-80
2021/01/18 09:11:39;;;;;;;52.63;19.97;;;;;;;-10.65;61.58;99861.19;1725051;82;21157;-75
2021/01/18 09:14:08;;;;;;;50.33;20.37;;;;;;;-10.49;61.02;99862.95;1721561;81;21676;-76
2021/01/18 09:16:40;;;;;;;57.33;22.60;;;;;;;-10.41;60.78;99861.00;1676964;83;21275;-80
2021/01/18 09:19:08;;;;;;;59.90;22.30;;;;;;;-10.50;60.57;99867.05;1724313;81;21140;-77
2021/01/18 09:21:36;;;;;;;65.45;22.93;;;;;;;-10.53;60.38;99868.62;1722708;81;21145;-78
2021/01/18 09:24:06;;;;;;;57.53;23.05;;;;;;;-10.63;60.48;99867.22;1723186;81;21282;-75
2021/01/18 09:26:35;;;;;;;56.33;22.73;;;;;;;-10.82;60.32;99860.87;1729195;81;21149;-74
2021/01/18 09:29:03;;;;;;;56.58;22.20;;;;;;;-10.86;61.55;99863.41;1719882;81;21165;-77
2021/01/18 09:31:31;;;;;;;58.08;23.35;;;;;;;-10.72;61.79;99857.84;1717151;81;21369;-77
2021/01/18 09:34:11;;;;;;;62.37;23.03;;;;;;;-10.52;61.29;99854.41;1727927;80;21615;-78
2021/01/18 09:36:43;;;;;;;62.23;23.00;;;;;;;-10.39;60.87;99851.13;1721704;80;21149;-76
2021/01/18 09:39:21;;;;;;;63.10;22.17;;;;;;;-10.38;60.63;99854.14;1724759;82;21112;-79
2021/01/18 09:41:53;;;;;;;55.57;22.77;;;;;;;-10.30;60.64;99850.39;1696388;82;21110;-77
2021/01/18 09:44:29;;;;;;;55.63;22.63;;;;;;;-10.39;60.33;99847.16;1725456;80;21642;-76
2021/01/18 09:46:57;;;;;;;58.33;22.48;;;;;;;-10.53;60.81;99839.53;1722223;80;21178;-76
2021/01/18 09:49:28;;;;;;;59.85;23.67;;;;;;;-10.75;61.17;99838.29;1724933;82;21307;-77
2021/01/18 09:51:57;;;;;;;57.40;23.87;;;;;;;-10.79;62.01;99832.87;1702228;82;21454;-77
2021/01/18 09:54:24;;;;;;;64.33;24.07;;;;;;;-10.82;62.44;99833.12;1720628;82;21640;-80
2021/01/18 09:56:54;;;;;;;65.13;24.00;;;;;;;-10.92;62.37;99826.89;1723789;80;21139;-80
2021/01/18 09:59:22;;;;;;;59.97;24.37;;;;;;;-10.95;62.59;99824.52;1722794;80;21273;-77
2021/01/18 10:01:51;;;;;;;54.37;22.83;;;;;;;-10.95;62.85;99825.84;1693690;83;21563;-78
2021/01/18 10:04:23;;;;;;;59.30;24.00;;;;;;;-10.83;63.42;99830.13;1720180;81;21232;-73
2021/01/18 10:06:51;;;;;;;51.63;21.60;;;;;;;-10.56;62.52;99826.56;1702984;81;21314;-77
2021/01/18 10:09:21;;;;;;;52.60;21.70;;;;;;;-10.34;61.55;99829.11;1726795;82;21180;-76
2021/01/18 10:11:49;;;;;;;56.13;20.70;;;;;;;-10.15;60.92;99827.10;1726884;81;21602;-75
2021/01/18 10:14:25;;;;;;;55.67;22.13;;;;;;;-10.02;60.34;99835.19;1728903;81;21294;-76
2021/01/18 10:17:06;;;;;;;49.60;20.90;;;;;;;-9.97;59.91;99834.31;1732402;81;21870;-74
2021/01/18 10:19:38;;;;;;;54.33;21.73;;;;;;;-9.83;59.48;99826.52;1730029;81;21188;-80
2021/01/18 10:22:19;;;;;;;54.33;21.13;;;;;;;-9.96;58.72;99821.42;1731582;81;21163;-77
2021/01/18 10:24:56;;;;;;;58.70;20.53;;;;;;;-10.32;59.57;99817.94;1730318;81;21286;-83
2021/01/18 10:27:26;;;;;;;52.53;20.60;;;;;;;-10.31;60.91;99818.75;1726049;81;21355;-78
2021/01/18 10:30:15;;;;;;;49.33;19.83;;;;;;;-10.13;60.67;99815.42;1730300;81;21148;-75
2021/01/18 10:32:45;;;;;;;49.53;19.10;;;;;;;-9.99;60.03;99816.38;1681796;81;21951;-75
2021/01/18 10:35:35;;;;;;;47.00;18.70;;;;;;;-9.89;59.76;99818.59;1725255;82;21425;-75
2021/01/18 10:38:18;;;;;;;46.50;19.43;;;;;;;-9.78;59.33;99807.95;1713397;81;21149;-79
2021/01/18 10:41:08;;;;;;;44.43;19.83;;;;;;;-9.60;59.09;99812.63;1728940;82;21277;-76
2021/01/18 10:43:37;;;;;;;46.40;19.33;;;;;;;-9.52;59.31;99801.73;1729089;81;21328;-76
2021/01/18 10:46:16;;;;;;;46.67;18.83;;;;;;;-9.45;58.85;99794.09;1734728;81;21172;-76
2021/01/18 10:48:56;;;;;;;46.73;19.53;;;;;;;-9.37;58.44;99796.44;1722489;81;21134;-75
2021/01/18 10:51:28;;;;;;;53.80;20.40;;;;;;;-9.33;58.53;99802.28;1719990;82;21229;-79
2021/01/18 10:53:59;;;;;;;51.63;19.23;;;;;;;-9.26;58.87;99804.77;1712811;81;21685;-79
2021/01/18 10:56:33;;;;;;;48.93;19.77;;;;;;;-9.20;58.36;99805.06;1721971;82;21131;-78
2021/01/18 10:59:01;;;;;;;44.80;17.97;;;;;;;-9.17;58.31;99797.33;1723851;80;21606;-78
2021/01/18 11:01:29;;;;;;;48.85;20.62;;;;;;;-9.19;57.82;99786.03;1725578;80;21120;-76
2021/01/18 11:04:03;;;;;;;45.90;18.40;;;;;;;-9.20;58.56;99781.69;1721075;81;21129;-74
2021/01/18 11:06:35;;;;;;;55.27;21.20;;;;;;;-9.22;58.03;99783.16;1725265;81;21156;-77
2021/01/18 11:09:04;;;;;;;56.97;20.33;;;;;;;-9.31;58.54;99777.84;1726108;82;21571;-74
2021/01/18 11:11:33;;;;;;;56.50;21.68;;;;;;;-9.37;58.89;99779.69;1730969;81;21127;-79
2021/01/18 11:14:06;;;;;;;45.43;19.55;;;;;;;-9.42;58.96;99783.23;1655268;82;21153;-74
2021/01/18 11:16:34;;;;;;;54.80;19.90;;;;;;;-9.39;58.71;99781.16;1726207;81;21279;-78
2021/01/18 11:19:06;;;;;;;47.83;20.43;;;;;;;-9.40;58.55;99778.63;1729845;81;21314;-81
2021/01/18 11:21:34;;;;;;;47.30;20.17;;;;;;;-9.46;58.62;99778.67;1742091;80;21263;-80
2021/01/18 11:24:03;;;;;;;49.00;20.20;;;;;;;-9.52;58.75;99785.00;1723729;82;21243;-79
2021/01/18 11:26:31;;;;;;;50.60;19.73;;;;;;;-9.57;59.47;99783.23;1717336;81;21169;-77
2021/01/18 11:28:59;;;;;;;54.20;19.75;;;;;;;-9.69;59.54;99784.64;1725253;82;21559;-77
2021/01/18 11:31:27;;;;;;;45.63;18.65;;;;;;;-9.84;60.38;99783.31;1747436;80;21120;-78
2021/01/18 11:33:55;;;;;;;;;;;;;;;-9.74;60.34;99793.97;1714233;80;21119;-76
2021/01/18 11:36:26;;;;;;;;;;;;;;;-9.63;60.03;99793.88;1748195;80;20170;-87
2021/01/18 11:38:53;;;;;;;46.13;18.73;;;;;;;-9.70;60.34;99786.95;1716033;82;20513;-80
2021/01/18 11:41:23;;;;;;;49.10;20.00;;;;;;;-9.60;60.04;99785.66;1708994;81;21120;-80
2021/01/18 11:43:50;;;;;;;51.53;20.57;;;;;;;-9.55;60.42;99786.11;1713653;81;21137;-79
2021/01/18 11:46:20;;;;;;;53.57;21.10;;;;;;;-9.46;59.94;99793.75;1715881;81;21175;-74
2021/01/18 11:48:48;;;;;;;56.33;21.10;;;;;;;-9.66;60.13;99795.96;1711038;81;21637;-81
2021/01/18 11:51:16;;;;;;;42.85;19.23;;;;;;;-9.72;60.50;99799.49;1729953;81;21784;-76
2021/01/18 11:53:47;;;;;;;46.10;18.07;;;;;;;-9.57;60.62;99800.45;1715240;81;21202;-81
2021/01/18 11:56:16;;;;;;;47.47;19.80;;;;;;;-9.47;60.59;99794.71;1736504;81;21194;-76
2021/01/18 11:58:45;;;;;;;50.93;21.60;;;;;;;-9.39;60.16;99794.89;1727084;81;21145;-74
2021/01/18 12:01:15;;;;;;;44.75;19.80;;;;;;;-9.25;60.21;99801.13;1715234;82;21698;-76
2021/01/18 12:03:44;;;;;;;50.00;19.23;;;;;;;-9.13;59.77;99796.08;1715638;82;21137;-75
2021/01/18 12:06:12;;;;;;;53.63;20.97;;;;;;;-9.08;59.56;99796.51;1698265;82;21184;-86